Time;durP1;ratioP1;P1;durP2;ratioP2;P2;SDS_P1;SDS_P2;PMS_P1;PMS_P2;Temp;Humidity;BMP_temperature;BMP_pressure;BME280_temperature;BME280_humidity;BME280_pressure;Samples;Min_cycle;Max_cycle;Signal;HPM_P1;HPM_P2
2023/06/23 00:01:18;;;;;;;9.43;5.97;;;20.00;77.90;;;;;;5070682;28;20041;-65
2023/06/23 00:03:47;;;;;;;9.13;5.57;;;19.90;77.80;;;;;;5073705;28;20091;-65
2023/06/23 00:06:14;;;;;;;10.05;6.18;;;20.00;77.80;;;;;;5072333;28;20025;-65
2023/06/23 00:08:40;;;;;;;9.32;5.90;;;20.00;77.80;;;;;;5055935;28;20108;-65
2023/06/23 00:11:10;;;;;;;10.05;6.15;;;19.90;77.70;;;;;;5069162;28;20029;-64
2023/06/23 00:13:37;;;;;;;9.07;5.30;;;19.90;77.60;;;;;;5053907;28;20017;-65
2023/06/23 00:16:06;;;;;;;10.23;6.10;;;19.90;77.70;;;;;;5070659;28;20061;-65
2023/06/23 00:18:36;;;;;;;10.80;6.22;;;19.90;77.70;;;;;;5073439;28;20040;-65
2023/06/23 00:21:08;;;;;;;8.60;5.68;;;19.90;77.60;;;;;;5071546;28;20040;-65
2023/06/23 00:23:35;;;;;;;7.93;5.05;;;19.90;77.60;;;;;;5072224;28;20028;-65
2023/06/23 00:26:01;;;;;;;9.02;5.70;;;19.90;77.60;;;;;;5072405;28;20064;-65
2023/06/23 00:28:27;;;;;;;9.48;5.90;;;19.80;77.50;;;;;;5073478;28;20220;-65
2023/06/23 00:30:54;;;;;;;10.50;6.53;;;19.80;77.50;;;;;;5072226;28;20104;-65
2023/06/23 00:33:20;;;;;;;9.52;5.88;;;19.80;77.40;;;;;;5072427;28;20445;-65
2023/06/23 00:35:47;;;;;;;10.38;5.85;;;19.80;77.90;;;;;;5066360;28;20032;-65
2023/06/23 00:38:13;;;;;;;9.95;5.80;;;19.80;77.30;;;;;;5073457;28;20078;-65
2023/06/23 00:40:40;;;;;;;9.45;5.90;;;19.80;77.20;;;;;;5054520;28;20044;-65
2023/06/23 00:43:06;;;;;;;8.18;5.15;;;19.80;77.20;;;;;;5054621;28;20031;-65
2023/06/23 00:45:31;;;;;;;8.93;6.18;;;19.80;77.30;;;;;;5054018;28;20115;-65
2023/06/23 00:47:58;;;;;;;9.68;5.93;;;19.80;77.20;;;;;;5055379;28;20427;-65
2023/06/23 00:50:24;;;;;;;10.10;6.47;;;19.70;77.20;;;;;;5054799;28;20044;-65
2023/06/23 00:52:54;;;;;;;9.85;5.78;;;19.70;77.30;;;;;;5072255;28;20059;-65
2023/06/23 00:55:22;;;;;;;13.77;6.03;;;19.70;77.30;;;;;;5054046;28;20656;-64
2023/06/23 00:57:49;;;;;;;10.13;6.18;;;19.70;77.20;;;;;;5072478;28;20063;-65
2023/06/23 01:00:18;;;;;;;10.68;5.85;;;19.70;77.30;;;;;;5071871;28;20032;-64
2023/06/23 01:02:49;;;;;;;9.57;5.88;;;19.70;77.40;;;;;;5039040;28;20033;-65
2023/06/23 01:05:20;;;;;;;10.27;6.28;;;19.60;77.40;;;;;;5053256;28;20032;-65
2023/06/23 01:07:46;;;;;;;;;;;19.60;77.30;;;;;;5057424;28;20029;-65
2023/06/23 01:10:17;;;;;;;8.85;5.63;;;19.60;77.30;;;;;;5057972;28;20337;-64
2023/06/23 01:13:02;;;;;;;9.43;5.55;;;19.50;77.30;;;;;;5075239;28;20091;-65
2023/06/23 01:15:39;;;;;;;10.43;6.22;;;19.50;77.30;;;;;;5054819;28;20116;-65
2023/06/23 01:18:41;;;;;;;9.25;6.18;;;19.50;77.40;;;;;;5057936;28;20411;-64
2023/06/23 01:21:10;;;;;;;9.50;5.93;;;19.50;77.40;;;;;;5069209;28;20036;-64
2023/06/23 01:24:02;;;;;;;9.70;6.00;;;19.40;77.40;;;;;;5058846;28;20119;-64
2023/06/23 01:26:36;;;;;;;10.07;5.85;;;19.40;77.50;;;;;;5072408;28;20120;-64
2023/06/23 01:29:07;;;;;;;9.60;6.10;;;19.40;77.50;;;;;;5058591;28;20087;-65
2023/06/23 01:31:50;;;;;;;;;;;19.40;77.60;;;;;;5057209;28;20052;-65
2023/06/23 01:34:22;;;;;;;10.48;5.65;;;19.40;77.60;;;;;;5076058;28;19966;-64
2023/06/23 01:36:59;;;;;;;9.25;6.10;;;19.30;77.50;;;;;;5056702;28;20024;-65
2023/06/23 01:39:26;;;;;;;10.27;6.72;;;19.30;77.50;;;;;;5056386;28;20027;-64
2023/06/23 01:42:15;;;;;;;9.57;6.25;;;19.30;77.60;;;;;;5037072;28;20096;-64
2023/06/23 01:44:50;;;;;;;9.60;6.82;;;19.30;77.50;;;;;;5072238;28;20025;-64
2023/06/23 01:47:19;;;;;;;11.35;7.53;;;19.30;77.60;;;;;;5056899;28;20024;-65
2023/06/23 01:49:48;;;;;;;9.30;6.35;;;19.30;77.60;;;;;;5057244;28;20111;-64
2023/06/23 01:52:15;;;;;;;10.60;6.57;;;19.30;77.60;;;;;;5039300;28;20112;-64
2023/06/23 01:54:42;;;;;;;11.00;6.60;;;19.30;77.60;;;;;;5075004;28;20449;-65
2023/06/23 01:57:11;;;;;;;10.52;6.70;;;19.30;77.60;;;;;;5056796;28;20036;-64
2023/06/23 01:59:39;;;;;;;10.23;6.53;;;19.30;77.60;;;;;;5058083;28;20432;-64
2023/06/23 02:02:08;;;;;;;9.27;6.63;;;19.30;77.60;;;;;;5054808;28;20032;-64
2023/06/23 02:04:36;;;;;;;11.10;6.82;;;19.30;77.60;;;;;;5075004;28;20031;-65
2023/06/23 02:07:03;;;;;;;9.80;6.22;;;19.30;77.60;;;;;;5056994;28;20047;-64
2023/06/23 02:09:30;;;;;;;10.63;7.28;;;19.30;77.60;;;;;;5075410;28;20024;-64
2023/06/23 02:11:58;;;;;;;9.57;6.78;;;19.20;77.60;;;;;;5073584;28;20028;-64
2023/06/23 02:14:26;;;;;;;10.90;6.60;;;19.30;77.70;;;;;;5055631;28;20052;-64
2023/06/23 02:16:53;;;;;;;10.52;6.88;;;19.20;77.70;;;;;;5056818;28;20067;-64
2023/06/23 02:19:20;;;;;;;11.20;7.72;;;19.20;77.70;;;;;;5074877;28;20083;-64
2023/06/23 02:21:48;;;;;;;9.90;6.65;;;19.20;77.70;;;;;;5073694;28;20354;-65
2023/06/23 02:24:15;;;;;;;9.63;6.72;;;19.20;77.70;;;;;;5073336;28;20090;-64
2023/06/23 02:26:42;;;;;;;10.77;7.28;;;19.20;77.80;;;;;;5074264;28;20040;-64
2023/06/23 02:29:10;;;;;;;9.73;6.68;;;19.20;77.80;;;;;;5074800;28;20040;-64
2023/06/23 02:31:36;;;;;;;11.90;7.10;;;19.10;77.70;;;;;;5074300;28;20082;-64
2023/06/23 02:34:02;;;;;;;13.02;7.50;;;19.10;77.70;;;;;;5073073;28;20422;-64
2023/06/23 02:36:34;;;;;;;10.65;7.50;;;19.10;77.60;;;;;;5055603;28;20027;-64
2023/06/23 02:39:04;;;;;;;9.48;6.45;;;19.10;77.60;;;;;;5057086;28;20415;-64
2023/06/23 02:41:34;;;;;;;9.90;7.38;;;19.10;77.70;;;;;;5025576;28;20091;-64
2023/06/23 02:44:06;;;;;;;10.38;7.03;;;19.10;77.70;;;;;;5048268;28;20055;-64
2023/06/23 02:46:38;;;;;;;10.20;7.07;;;19.10;77.70;;;;;;5056314;28;20029;-64
2023/06/23 02:49:10;;;;;;;11.45;7.20;;;19.10;77.70;;;;;;5056141;28;20040;-64
2023/06/23 02:51:37;;;;;;;11.95;6.72;;;19.10;77.80;;;;;;5075060;28;20021;-64
2023/06/23 02:54:07;;;;;;;10.25;6.85;;;19.10;77.80;;;;;;5070774;28;20025;-64
2023/06/23 02:56:41;;;;;;;11.63;7.72;;;19.10;77.90;;;;;;5073944;28;20029;-64
2023/06/23 02:59:11;;;;;;;10.43;6.88;;;19.00;77.90;;;;;;5055956;28;20547;-64
2023/06/23 03:01:40;;;;;;;10.23;7.22;;;19.00;78.00;;;;;;5074544;28;20040;-64
2023/06/23 03:04:06;;;;;;;13.02;7.63;;;19.00;78.10;;;;;;5055715;28;20385;-65
2023/06/23 03:06:35;;;;;;;11.43;7.63;;;19.00;78.00;;;;;;5072639;28;20402;-64
2023/06/23 03:09:09;;;;;;;11.65;7.95;;;19.00;78.00;;;;;;5055827;28;20423;-64
2023/06/23 03:11:35;;;;;;;10.27;7.72;;;19.00;78.10;;;;;;5073490;28;20453;-64
2023/06/23 03:14:02;;;;;;;11.35;8.13;;;19.00;78.10;;;;;;5055210;28;20032;-64
2023/06/23 03:16:43;;;;;;;11.05;7.88;;;19.00;78.20;;;;;;5055244;28;20083;-64
2023/06/23 03:19:08;;;;;;;10.38;7.40;;;19.00;78.30;;;;;;5072163;28;20067;-64
2023/06/23 03:21:36;;;;;;;12.15;8.75;;;19.00;79.00;;;;;;5073315;28;20476;-65
2023/06/23 03:24:07;;;;;;;12.05;9.23;;;19.00;78.40;;;;;;5048291;28;20025;-65
2023/06/23 03:26:36;;;;;;;12.02;8.73;;;19.00;78.40;;;;;;5049378;28;20020;-65
2023/06/23 03:29:04;;;;;;;13.63;9.23;;;19.00;78.50;;;;;;5072659;28;20032;-65
2023/06/23 03:31:31;;;;;;;15.27;9.55;;;19.00;78.50;;;;;;5041445;28;20040;-64
2023/06/23 03:33:58;;;;;;;14.10;10.10;;;19.00;78.60;;;;;;5071215;28;20032;-64
2023/06/23 03:36:25;;;;;;;14.50;10.88;;;18.90;78.50;;;;;;5054673;28;20021;-64
2023/06/23 03:39:10;;;;;;;15.23;10.80;;;18.90;78.70;;;;;;5072033;28;20025;-64
2023/06/23 03:41:38;;;;;;;15.75;11.43;;;18.90;78.60;;;;;;5073849;28;20024;-64
2023/06/23 03:44:12;;;;;;;16.55;11.05;;;18.90;78.70;;;;;;5071797;28;20457;-65
2023/06/23 03:46:43;;;;;;;15.45;11.25;;;18.90;78.70;;;;;;5072570;28;20112;-64
2023/06/23 03:49:10;;;;;;;18.05;12.65;;;19.00;78.80;;;;;;5071889;28;20039;-64
2023/06/23 03:51:42;;;;;;;15.77;12.07;;;19.00;78.80;;;;;;5074054;28;20397;-64
2023/06/23 03:54:09;;;;;;;15.90;11.43;;;19.00;78.80;;;;;;5070809;28;20107;-64
2023/06/23 03:56:36;;;;;;;16.65;12.90;;;18.90;79.30;;;;;;5053838;28;20048;-64
2023/06/23 03:59:05;;;;;;;15.43;12.10;;;19.00;78.80;;;;;;5070948;28;20044;-64
2023/06/23 04:01:32;;;;;;;15.90;12.10;;;19.00;78.80;;;;;;5074031;28;20028;-64
2023/06/23 04:03:59;;;;;;;16.13;12.75;;;19.00;78.80;;;;;;5070648;28;20032;-64
2023/06/23 04:06:27;;;;;;;16.30;12.20;;;19.00;78.80;;;;;;5071371;28;20031;-65
2023/06/23 04:08:57;;;;;;;17.02;13.13;;;19.00;79.40;;;;;;5036525;28;20441;-65
2023/06/23 04:11:25;;;;;;;16.67;13.13;;;19.00;78.80;;;;;;5073704;28;20029;-64
2023/06/23 04:13:55;;;;;;;16.70;13.45;;;19.00;78.80;;;;;;5068673;28;20373;-64
2023/06/23 04:16:21;;;;;;;18.48;14.20;;;19.00;78.80;;;;;;5067667;28;20108;-64
2023/06/23 04:18:49;;;;;;;19.75;14.98;;;19.00;78.80;;;;;;5071112;28;20028;-64
2023/06/23 04:21:16;;;;;;;17.48;14.32;;;19.00;78.80;;;;;;5055480;28;20083;-64
2023/06/23 04:23:44;;;;;;;18.40;14.82;;;19.00;78.80;;;;;;5053629;28;20086;-64
2023/06/23 04:26:12;;;;;;;21.38;15.88;;;19.00;78.80;;;;;;5072262;28;20056;-64
2023/06/23 04:28:41;;;;;;;18.77;15.57;;;19.00;78.90;;;;;;5051535;28;20037;-64
2023/06/23 04:31:09;;;;;;;21.10;16.50;;;19.00;78.90;;;;;;5072388;28;20020;-64
2023/06/23 04:33:36;;;;;;;19.70;15.13;;;19.00;79.00;;;;;;5068769;28;20017;-65
2023/06/23 04:36:10;;;;;;;20.75;14.95;;;19.00;79.00;;;;;;5071869;28;20060;-65
2023/06/23 04:38:39;;;;;;;21.63;16.85;;;19.00;79.10;;;;;;5051928;28;20025;-65
2023/06/23 04:41:07;;;;;;;21.13;16.63;;;19.00;79.10;;;;;;5053176;28;20241;-64
2023/06/23 04:43:41;;;;;;;27.85;17.10;;;19.00;79.10;;;;;;5074187;28;20484;-64
2023/06/23 04:46:13;;;;;;;22.90;17.30;;;19.00;79.10;;;;;;5076300;28;20161;-65
2023/06/23 04:48:45;;;;;;;21.08;16.60;;;19.00;79.10;;;;;;5057547;28;20036;-65
2023/06/23 04:51:12;;;;;;;23.27;18.90;;;19.00;79.00;;;;;;5076653;28;20024;-65
2023/06/23 04:53:46;;;;;;;23.85;17.60;;;19.10;79.00;;;;;;5075085;28;20025;-64
2023/06/23 04:56:16;;;;;;;22.73;18.27;;;19.10;79.10;;;;;;5070920;28;20353;-64
2023/06/23 04:58:46;;;;;;;24.90;18.73;;;19.10;79.20;;;;;;5057706;28;20025;-64
2023/06/23 05:01:13;;;;;;;23.92;18.95;;;19.10;79.20;;;;;;5067955;28;20457;-64
2023/06/23 05:03:40;;;;;;;21.58;17.00;;;19.10;79.10;;;;;;5073393;28;20055;-64
2023/06/23 05:06:07;;;;;;;25.17;19.52;;;19.20;79.20;;;;;;5069406;28;20029;-64
2023/06/23 05:08:33;;;;;;;23.33;18.08;;;19.20;79.10;;;;;;5069244;28;20052;-64
2023/06/23 05:11:05;;;;;;;24.58;19.10;;;19.30;79.10;;;;;;5071570;28;20094;-64
2023/06/23 05:13:32;;;;;;;23.90;19.25;;;19.40;79.10;;;;;;5072589;28;20107;-64
2023/06/23 05:16:00;;;;;;;23.75;18.60;;;19.50;79.10;;;;;;5070981;28;20029;-63
2023/06/23 05:18:28;;;;;;;24.52;18.83;;;19.40;78.90;;;;;;5055335;28;20036;-63
2023/06/23 05:20:58;;;;;;;22.52;18.70;;;19.50;79.00;;;;;;5069805;28;20048;-63
2023/06/23 05:23:26;;;;;;;23.40;18.63;;;19.60;79.00;;;;;;5069552;28;20037;-63
2023/06/23 05:25:56;;;;;;;22.40;18.52;;;19.60;79.00;;;;;;5069636;28;20037;-63
2023/06/23 05:28:26;;;;;;;24.25;18.15;;;19.70;79.00;;;;;;5072092;28;20158;-63
2023/06/23 05:30:55;;;;;;;28.30;19.65;;;19.70;78.90;;;;;;5069444;28;20028;-67
2023/06/23 05:33:24;;;;;;;25.40;18.77;;;19.70;79.00;;;;;;5071089;28;20035;-64
2023/06/23 05:35:52;;;;;;;24.40;18.52;;;19.80;79.10;;;;;;5049930;28;20024;-67
2023/06/23 05:38:19;;;;;;;28.75;18.77;;;19.80;79.10;;;;;;5051574;28;20128;-64
2023/06/23 05:40:45;;;;;;;26.30;19.77;;;19.80;79.10;;;;;;5067993;28;20028;-63
2023/06/23 05:43:11;;;;;;;22.63;18.55;;;19.80;79.20;;;;;;5068846;28;20032;-63
2023/06/23 05:45:37;;;;;;;23.27;18.42;;;19.80;79.30;;;;;;5069740;28;20052;-63
2023/06/23 05:48:18;;;;;;;25.30;19.33;;;19.90;79.40;;;;;;5046826;28;20370;-63
2023/06/23 05:50:48;;;;;;;25.85;18.70;;;19.90;79.30;;;;;;5068476;28;20407;-64
2023/06/23 05:53:18;;;;;;;23.13;17.77;;;19.90;79.40;;;;;;5048810;28;20044;-63
2023/06/23 05:56:06;;;;;;;22.55;17.92;;;20.00;79.30;;;;;;5052970;28;20361;-64
2023/06/23 05:58:38;;;;;;;25.52;18.35;;;20.10;79.20;;;;;;5036253;28;20068;-63
2023/06/23 06:01:10;;;;;;;20.90;16.88;;;20.10;79.20;;;;;;5048263;28;20483;-63
2023/06/23 06:03:44;;;;;;;23.98;18.25;;;20.10;79.20;;;;;;5066524;28;20020;-63
2023/06/23 06:06:11;;;;;;;23.33;18.45;;;20.20;79.30;;;;;;5069403;28;20039;-63
2023/06/23 06:08:38;;;;;;;24.77;17.88;;;20.20;79.20;;;;;;5070286;28;20060;-64
2023/06/23 06:11:06;;;;;;;23.17;17.75;;;20.30;79.30;;;;;;5053123;28;20016;-63
2023/06/23 06:13:37;;;;;;;26.00;19.02;;;20.40;79.10;;;;;;5068874;28;20037;-64
2023/06/23 06:16:07;;;;;;;23.70;16.88;;;20.40;79.00;;;;;;5068237;28;20086;-64
2023/06/23 06:18:34;;;;;;;22.27;17.27;;;20.60;78.80;;;;;;5070674;28;20029;-63
2023/06/23 06:21:01;;;;;;;20.85;16.60;;;20.70;78.80;;;;;;5067837;28;20367;-63
2023/06/23 06:23:29;;;;;;;22.35;17.52;;;20.80;78.70;;;;;;5069149;28;20036;-64
2023/06/23 06:25:56;;;;;;;21.88;17.20;;;20.90;78.60;;;;;;5069604;28;20457;-63
2023/06/23 06:28:25;;;;;;;24.17;18.08;;;21.00;78.50;;;;;;5050293;28;20039;-65
2023/06/23 06:30:53;;;;;;;23.13;17.75;;;21.10;78.40;;;;;;5068311;28;20035;-64
2023/06/23 06:33:21;;;;;;;22.45;17.65;;;21.10;78.30;;;;;;5045748;28;20480;-64
2023/06/23 06:35:49;;;;;;;23.65;18.15;;;21.10;78.00;;;;;;5068853;28;20522;-66
2023/06/23 06:38:16;;;;;;;25.80;18.10;;;21.20;78.00;;;;;;5034934;28;20029;-64
2023/06/23 06:40:46;;;;;;;21.90;17.23;;;21.30;77.90;;;;;;5068081;28;20445;-64
2023/06/23 06:43:12;;;;;;;21.65;17.70;;;21.50;77.60;;;;;;5068710;28;20028;-64
2023/06/23 06:45:41;;;;;;;23.80;18.02;;;21.60;77.20;;;;;;5047928;28;20346;-64
2023/06/23 06:48:08;;;;;;;23.50;17.67;;;21.70;76.90;;;;;;5068897;28;20060;-64
2023/06/23 06:50:35;;;;;;;19.52;16.15;;;21.80;76.80;;;;;;5053409;28;20028;-64
2023/06/23 06:53:02;;;;;;;20.02;16.95;;;21.90;76.60;;;;;;5051418;28;20036;-64
2023/06/23 06:55:29;;;;;;;22.88;17.23;;;22.00;76.30;;;;;;5067337;28;20024;-64
2023/06/23 06:57:55;;;;;;;20.13;16.52;;;22.20;76.00;;;;;;5068683;28;20361;-64
2023/06/23 07:00:23;;;;;;;19.23;15.32;;;22.30;75.80;;;;;;5050689;28;20051;-64
2023/06/23 07:02:49;;;;;;;20.92;16.25;;;22.50;75.40;;;;;;5068280;28;20036;-64
2023/06/23 07:05:16;;;;;;;20.98;16.05;;;22.60;75.20;;;;;;5069138;28;20039;-64
2023/06/23 07:07:42;;;;;;;18.08;14.50;;;22.80;74.90;;;;;;5067443;28;20165;-65
2023/06/23 07:10:08;;;;;;;18.25;13.77;;;22.90;74.50;;;;;;5067219;28;20475;-64
2023/06/23 07:12:34;;;;;;;19.52;14.32;;;23.10;74.30;;;;;;5067621;28;20024;-65
2023/06/23 07:15:00;;;;;;;17.92;13.50;;;23.20;73.90;;;;;;5069645;28;20021;-65
2023/06/23 07:17:26;;;;;;;17.25;12.25;;;23.30;73.80;;;;;;5033712;28;20476;-64
2023/06/23 07:19:52;;;;;;;16.75;13.02;;;23.40;73.40;;;;;;5041866;28;20121;-64
2023/06/23 07:22:18;;;;;;;17.13;13.00;;;23.40;73.00;;;;;;5051123;28;20702;-64
2023/06/23 07:24:44;;;;;;;16.23;12.60;;;23.60;72.80;;;;;;5045510;28;20052;-64
2023/06/23 07:27:10;;;;;;;18.42;12.60;;;23.70;72.40;;;;;;5067700;28;20111;-64
2023/06/23 07:29:36;;;;;;;16.75;12.30;;;23.80;71.90;;;;;;5067450;28;20124;-64
2023/06/23 07:32:02;;;;;;;17.00;12.43;;;24.00;71.60;;;;;;5068715;28;20397;-64
2023/06/23 07:34:28;;;;;;;14.63;11.75;;;24.00;71.10;;;;;;5052821;28;20034;-64
2023/06/23 07:36:54;;;;;;;15.20;11.63;;;24.00;71.10;;;;;;5035052;28;20058;-64
2023/06/23 07:39:20;;;;;;;12.40;9.93;;;24.00;70.70;;;;;;5068174;28;20523;-64
2023/06/23 07:41:46;;;;;;;14.00;10.50;;;24.20;70.40;;;;;;5051361;28;20036;-64
2023/06/23 07:44:12;;;;;;;14.65;10.75;;;24.40;70.10;;;;;;5051058;28;20025;-64
2023/06/23 07:46:37;;;;;;;13.30;9.82;;;24.50;69.50;;;;;;5067133;28;20039;-64
2023/06/23 07:49:03;;;;;;;15.23;10.05;;;24.60;69.70;;;;;;5046904;28;20060;-63
2023/06/23 07:51:29;;;;;;;13.75;9.93;;;24.80;68.50;;;;;;5048212;28;20021;-63
2023/06/23 07:53:55;;;;;;;12.82;9.50;;;24.90;68.10;;;;;;5047767;28;20361;-64
2023/06/23 07:56:21;;;;;;;15.32;9.05;;;25.00;67.80;;;;;;5044717;28;20521;-63
2023/06/23 07:58:47;;;;;;;12.98;9.88;;;25.10;67.40;;;;;;5047252;28;20028;-63
2023/06/23 08:01:13;;;;;;;12.95;9.30;;;25.10;67.00;;;;;;5045929;28;20017;-64
2023/06/23 08:03:43;;;;;;;13.70;9.10;;;25.20;66.60;;;;;;5046566;28;21224;-64
2023/06/23 08:06:09;;;;;;;12.40;8.43;;;25.30;66.40;;;;;;5048629;28;20124;-64
2023/06/23 08:08:35;;;;;;;12.43;9.00;;;25.40;66.00;;;;;;5047123;28;20039;-64
2023/06/23 08:11:01;;;;;;;13.68;9.02;;;25.50;65.60;;;;;;5052216;28;20041;-65
2023/06/23 08:13:26;;;;;;;12.13;8.38;;;25.60;65.00;;;;;;5053750;28;20029;-65
2023/06/23 08:15:52;;;;;;;12.27;8.32;;;25.60;64.40;;;;;;5053049;28;20078;-65
2023/06/23 08:18:18;;;;;;;10.50;7.18;;;25.60;64.10;;;;;;5057239;28;20029;-65
2023/06/23 08:20:45;;;;;;;10.57;7.32;;;25.70;63.90;;;;;;5058249;28;20052;-65
2023/06/23 08:23:10;;;;;;;10.90;7.28;;;25.80;63.90;;;;;;5058373;28;20371;-65
2023/06/23 08:25:36;;;;;;;11.75;7.30;;;25.90;63.60;;;;;;5056495;28;20113;-65
2023/06/23 08:28:02;;;;;;;10.10;7.05;;;26.00;63.40;;;;;;5057985;28;20469;-66
2023/06/23 08:30:30;;;;;;;10.40;6.93;;;26.00;63.00;;;;;;5057719;28;20033;-66
2023/06/23 08:32:57;;;;;;;11.48;6.47;;;26.20;62.50;;;;;;5056757;28;20033;-66
2023/06/23 08:35:23;;;;;;;10.43;6.70;;;26.20;62.20;;;;;;5056844;28;20430;-66
2023/06/23 08:37:49;;;;;;;10.23;5.85;;;26.30;61.60;;;;;;5071933;28;20391;-66
2023/06/23 08:40:15;;;;;;;8.98;5.50;;;26.40;61.40;;;;;;5056945;28;20120;-66
2023/06/23 08:42:41;;;;;;;10.07;5.78;;;26.50;61.10;;;;;;5040167;28;20409;-66
2023/06/23 08:45:08;;;;;;;7.82;4.85;;;26.60;60.60;;;;;;5056758;28;20025;-66
2023/06/23 08:47:45;;;;;;;8.10;4.95;;;26.70;60.20;;;;;;5055788;28;20458;-66
2023/06/23 08:50:11;;;;;;;9.07;4.85;;;26.80;59.60;;;;;;5056696;28;20461;-66
2023/06/23 08:52:38;;;;;;;8.05;4.90;;;26.80;59.40;;;;;;5056621;28;20029;-66
2023/06/23 08:55:04;;;;;;;7.47;4.50;;;26.90;59.00;;;;;;5051258;28;20032;-66
2023/06/23 08:57:30;;;;;;;9.23;4.97;;;26.90;58.50;;;;;;5052016;28;20039;-66
2023/06/23 08:59:56;;;;;;;7.45;4.55;;;27.00;58.10;;;;;;5057760;28;20044;-66
2023/06/23 09:02:23;;;;;;;6.68;3.78;;;27.00;57.50;;;;;;5056443;28;20032;-66
2023/06/23 09:04:49;;;;;;;8.90;4.15;;;27.10;57.30;;;;;;5043378;28;20036;-66
2023/06/23 09:07:15;;;;;;;7.90;4.35;;;27.20;56.80;;;;;;5051781;28;20032;-66
2023/06/23 09:09:45;;;;;;;8.05;4.65;;;27.30;56.20;;;;;;5057321;28;20111;-66
2023/06/23 09:12:11;;;;;;;8.38;4.10;;;27.40;56.00;;;;;;5057301;28;20432;-66
2023/06/23 09:14:38;;;;;;;7.38;4.50;;;27.40;56.00;;;;;;5057309;28;20188;-66
2023/06/23 09:17:04;;;;;;;7.10;4.18;;;27.40;55.80;;;;;;5056476;28;20033;-66
2023/06/23 09:19:34;;;;;;;7.38;4.20;;;27.50;55.40;;;;;;5055236;28;20025;-66
2023/06/23 09:22:00;;;;;;;8.02;3.95;;;27.60;55.20;;;;;;5057349;28;20029;-66
2023/06/23 09:24:39;;;;;;;8.85;4.80;;;27.70;55.20;;;;;;5055793;28;20047;-66
2023/06/23 09:27:05;;;;;;;7.38;3.95;;;27.80;54.90;;;;;;5055435;28;20033;-66
2023/06/23 09:29:30;;;;;;;7.65;4.32;;;27.90;54.70;;;;;;5054985;28;20021;-66
2023/06/23 09:31:59;;;;;;;7.63;4.00;;;28.00;54.30;;;;;;5055620;28;20411;-66
2023/06/23 09:34:27;;;;;;;7.35;3.72;;;28.10;53.70;;;;;;5056791;28;20033;-66
2023/06/23 09:37:05;;;;;;;7.20;3.35;;;28.10;53.30;;;;;;5056023;28;20407;-66
2023/06/23 09:39:39;;;;;;;6.20;3.22;;;28.00;53.30;;;;;;5052179;28;20040;-66
2023/06/23 09:42:08;;;;;;;7.45;4.20;;;28.00;53.10;;;;;;5055656;28;20043;-66
2023/06/23 09:44:40;;;;;;;7.32;3.92;;;28.00;53.10;;;;;;5056086;28;20120;-66
2023/06/23 09:47:06;;;;;;;5.75;3.25;;;28.10;52.80;;;;;;5055773;28;20046;-66
2023/06/23 09:49:43;;;;;;;7.22;3.60;;;28.20;52.70;;;;;;5074894;28;20400;-66
2023/06/23 09:52:13;;;;;;;7.47;3.00;;;28.30;52.10;;;;;;5071895;28;20036;-66
2023/06/23 09:54:41;;;;;;;7.45;4.07;;;28.40;51.90;;;;;;5042183;28;20028;-66
2023/06/23 09:57:14;;;;;;;6.88;3.83;;;28.50;51.90;;;;;;5075459;28;20021;-65
2023/06/23 09:59:41;;;;;;;6.57;3.58;;;28.50;51.90;;;;;;5058638;28;20025;-65
2023/06/23 10:02:23;;;;;;;7.85;4.00;;;28.50;51.90;;;;;;5073292;28;20056;-65
2023/06/23 10:04:49;;;;;;;7.70;4.30;;;28.20;52.00;;;;;;5049366;28;20021;-66
2023/06/23 10:07:20;;;;;;;7.25;4.13;;;28.00;52.30;;;;;;5075358;28;20025;-65
2023/06/23 10:09:54;;;;;;;7.20;3.70;;;27.90;52.60;;;;;;5058429;28;20025;-65
2023/06/23 10:12:22;;;;;;;6.30;3.45;;;28.00;52.60;;;;;;5073764;28;20027;-66
2023/06/23 10:14:49;;;;;;;6.55;3.45;;;28.20;52.40;;;;;;5036487;28;20082;-66
2023/06/23 10:17:16;;;;;;;6.60;3.30;;;28.40;52.10;;;;;;5072167;28;20423;-66
2023/06/23 10:19:49;;;;;;;6.68;3.65;;;28.50;51.40;;;;;;5075643;28;20032;-65
2023/06/23 10:22:20;;;;;;;6.47;3.38;;;28.60;51.30;;;;;;5073672;28;20112;-65
2023/06/23 10:24:51;;;;;;;6.35;3.40;;;28.60;51.40;;;;;;5074437;28;20056;-65
2023/06/23 10:27:27;;;;;;;7.85;4.30;;;28.50;51.40;;;;;;5064697;28;20020;-65
2023/06/23 10:29:55;;;;;;;6.65;3.63;;;28.20;51.70;;;;;;5072161;28;20426;-65
2023/06/23 10:32:23;;;;;;;6.78;4.05;;;28.10;52.00;;;;;;5074276;28;20373;-65
2023/06/23 10:34:51;;;;;;;6.55;3.47;;;28.10;52.00;;;;;;5075544;28;20077;-65
2023/06/23 10:37:21;;;;;;;7.47;3.67;;;28.10;51.70;;;;;;5057677;28;20031;-65
2023/06/23 10:39:51;;;;;;;7.00;3.25;;;28.30;51.20;;;;;;5051030;28;20039;-65
2023/06/23 10:42:17;;;;;;;8.00;3.58;;;28.20;51.10;;;;;;5068455;28;20032;-65
2023/06/23 10:44:43;;;;;;;8.10;3.15;;;28.40;50.80;;;;;;5053897;28;20032;-65
2023/06/23 10:47:09;;;;;;;6.35;3.15;;;28.50;50.50;;;;;;5057386;28;20023;-65
2023/06/23 10:49:39;;;;;;;5.75;3.05;;;28.60;50.20;;;;;;5057132;28;20029;-65
2023/06/23 10:52:05;;;;;;;5.55;2.97;;;28.80;49.40;;;;;;5074795;28;20321;-65
2023/06/23 10:54:31;;;;;;;6.63;3.40;;;28.90;49.20;;;;;;5058026;28;20028;-65
2023/06/23 10:56:57;;;;;;;6.45;3.00;;;29.00;48.80;;;;;;5057823;28;20025;-65
2023/06/23 10:59:25;;;;;;;6.90;2.92;;;29.00;48.30;;;;;;5074705;28;20112;-65
2023/06/23 11:02:00;;;;;;;6.97;3.50;;;29.10;48.20;;;;;;5074460;28;20028;-65
2023/06/23 11:04:30;;;;;;;6.38;3.08;;;29.10;48.30;;;;;;5041307;28;20308;-66
2023/06/23 11:07:03;;;;;;;5.50;2.60;;;29.20;48.20;;;;;;5034581;28;20051;-65
2023/06/23 11:09:52;;;;;;;5.43;2.92;;;29.30;47.80;;;;;;5061460;28;20085;-65
2023/06/23 11:12:39;;;;;;;6.72;2.88;;;29.50;47.40;;;;;;5074101;28;20522;-65
2023/06/23 11:15:08;;;;;;;5.32;2.90;;;29.50;47.70;;;;;;5065892;28;20035;-65
2023/06/23 11:17:59;;;;;;;5.57;2.88;;;29.50;46.60;;;;;;5075024;28;20032;-65
2023/06/23 11:20:24;;;;;;;5.38;2.70;;;29.50;45.90;;;;;;5057013;28;20092;-65
2023/06/23 11:22:53;;;;;;;5.85;2.80;;;29.50;45.90;;;;;;5056035;28;20039;-65
2023/06/23 11:25:25;;;;;;;6.78;2.97;;;29.40;45.50;;;;;;5074197;28;20362;-65
2023/06/23 11:28:25;;;;;;;5.75;2.83;;;29.40;45.10;;;;;;5074640;28;20032;-65
2023/06/23 11:31:14;;;;;;;6.00;2.65;;;29.40;44.80;;;;;;5074331;28;20119;-65
2023/06/23 11:34:00;;;;;;;7.20;3.33;;;29.50;44.80;;;;;;5051274;28;20031;-65
2023/06/23 11:36:29;;;;;;;5.22;2.72;;;29.50;44.90;;;;;;5068767;28;20437;-65
2023/06/23 11:38:56;;;;;;;4.28;2.00;;;29.60;45.10;;;;;;5065735;28;20440;-65
2023/06/23 11:41:30;;;;;;;6.70;2.70;;;29.60;44.60;;;;;;5074223;28;20020;-65
2023/06/23 11:44:00;;;;;;;6.22;2.53;;;29.70;43.80;;;;;;5055314;28;20036;-65
2023/06/23 11:46:27;;;;;;;4.95;2.30;;;29.70;43.90;;;;;;5073979;28;20028;-65
2023/06/23 11:48:53;;;;;;;6.20;2.55;;;29.70;44.10;;;;;;5039719;28;20396;-65
2023/06/23 11:51:21;;;;;;;5.20;2.58;;;29.70;44.10;;;;;;5073713;28;20029;-65
2023/06/23 11:53:50;;;;;;;6.07;2.95;;;29.70;44.30;;;;;;5073241;28;20104;-65
2023/06/23 11:56:17;;;;;;;6.47;2.83;;;29.60;44.30;;;;;;5073876;28;20095;-65
2023/06/23 11:58:55;;;;;;;6.43;2.45;;;29.60;44.40;;;;;;5074267;28;20111;-65
2023/06/23 12:01:22;;;;;;;4.88;2.42;;;29.60;44.20;;;;;;5056594;28;20024;-65
2023/06/23 12:03:49;;;;;;;5.65;2.50;;;29.60;44.30;;;;;;5038869;28;20024;-66
2023/06/23 12:06:17;;;;;;;6.03;2.90;;;29.50;44.20;;;;;;5073129;28;20032;-65
2023/06/23 12:08:44;;;;;;;7.57;3.00;;;29.50;44.50;;;;;;5074342;28;20032;-65
2023/06/23 12:11:10;;;;;;;6.78;2.83;;;29.50;44.90;;;;;;5039540;28;20023;-65
2023/06/23 12:13:38;;;;;;;5.68;2.67;;;29.40;44.60;;;;;;5073927;28;20025;-65
2023/06/23 12:16:06;;;;;;;5.70;2.65;;;29.30;44.20;;;;;;5073776;28;20449;-65
2023/06/23 12:18:32;;;;;;;5.63;2.50;;;29.30;44.10;;;;;;5072196;28;20021;-65
2023/06/23 12:21:01;;;;;;;5.50;2.72;;;29.20;44.00;;;;;;5039504;28;20037;-65
2023/06/23 12:23:31;;;;;;;7.10;2.90;;;29.10;44.30;;;;;;5074008;28;20036;-65
2023/06/23 12:25:58;;;;;;;7.00;2.75;;;29.00;44.50;;;;;;5072883;28;20032;-65
2023/06/23 12:28:28;;;;;;;5.53;2.75;;;28.90;44.40;;;;;;5073579;28;20060;-65
2023/06/23 12:30:54;;;;;;;5.75;2.67;;;28.80;44.60;;;;;;5074472;28;20055;-65
2023/06/23 12:33:27;;;;;;;6.90;2.60;;;28.80;44.70;;;;;;5039466;28;20028;-65
2023/06/23 12:36:07;;;;;;;6.03;2.67;;;28.70;44.70;;;;;;5072862;28;20046;-65
2023/06/23 12:38:35;;;;;;;6.22;2.42;;;28.60;44.80;;;;;;5055417;28;20108;-66
2023/06/23 12:41:33;;;;;;;5.70;2.72;;;28.50;44.80;;;;;;5074009;28;20038;-65
2023/06/23 12:44:00;;;;;;;5.40;2.75;;;28.40;45.30;;;;;;5044609;28;20059;-65
2023/06/23 12:46:28;;;;;;;5.90;2.92;;;28.40;45.30;;;;;;5055147;28;20025;-66
2023/06/23 12:48:54;;;;;;;5.70;2.65;;;28.30;45.50;;;;;;5072483;28;20433;-65